Time;durP1;ratioP1;P1;durP2;ratioP2;P2;SDS_P1;SDS_P2;PMS_P1;PMS_P2;Temp;Humidity;BMP_temperature;BMP_pressure;BME280_temperature;BME280_humidity;BME280_pressure;Samples;Min_cycle;Max_cycle;Signal;HPM_P1;HPM_P2
2021/12/16 00:08:34;;;;;;;33.03;15.73;;;;;;;;;;5003552;28;20053;-69
2021/12/16 00:11:14;;;;;;;39.88;17.15;;;;;;;;;;4990687;28;20593;-69
2021/12/16 00:32:58;;;;;;;41.78;17.17;;;;;;;;;;5008125;28;20042;-69
2021/12/16 00:35:24;;;;;;;40.28;16.13;;;;;;;;;;5006782;28;20041;-70
2021/12/16 00:37:49;;;;;;;38.65;17.92;;;;;;;;;;5022635;28;20041;-69
2021/12/16 00:40:15;;;;;;;40.03;17.08;;;;;;;;;;5009741;28;20034;-69
2021/12/16 00:42:54;;;;;;;38.75;16.83;;;;;;;;;;5009344;28;20026;-69
2021/12/16 00:48:59;;;;;;;35.30;16.50;;;;;;;;;;5004370;28;20038;-69
2021/12/16 00:55:51;;;;;;;41.50;16.45;;;;;;;;;;5028461;28;20052;-69
2021/12/16 00:58:22;;;;;;;35.65;17.38;;;;;;;;;;5009595;28;20705;-69
2021/12/16 01:00:57;;;;;;;43.45;17.73;;;;;;;;;;5028502;28;20048;-69
2021/12/16 01:08:41;;;;;;;35.80;15.80;;;;;;;;;;5017552;28;20419;-69
2021/12/16 01:52:34;;;;;;;34.50;16.27;;;;;;;;;;5026902;28;20708;-69
2021/12/16 01:55:10;;;;;;;39.75;17.05;;;;;;;;;;5024412;28;20037;-69
2021/12/16 01:57:45;;;;;;;36.65;17.25;;;;;;;;;;5019398;28;20110;-69
2021/12/16 02:00:31;;;;;;;34.60;16.85;;;;;;;;;;5026234;28;20570;-70
2021/12/16 02:03:04;;;;;;;35.88;16.95;;;;;;;;;;5028022;28;20042;-69
2021/12/16 02:08:22;;;;;;;39.50;16.58;;;;;;;;;;5023814;28;20545;-69
2021/12/16 02:11:05;;;;;;;40.78;17.02;;;;;;;;;;5023012;28;20457;-69
2021/12/16 02:27:15;;;;;;;37.43;17.10;;;;;;;;;;5026124;28;20049;-69
2021/12/16 02:36:15;;;;;;;38.00;16.95;;;;;;;;;;5031936;28;20519;-69
2021/12/16 02:38:33;;;;;;;36.35;17.25;;;;;;;;;;5033423;28;20454;-69
2021/12/16 02:40:59;;;;;;;45.08;19.70;;;;;;;;;;5027300;28;20042;-69
2021/12/16 02:44:15;;;;;;;43.90;18.73;;;;;;;;;;5032083;28;20124;-69
2021/12/16 02:48:41;;;;;;;44.65;19.10;;;;;;;;;;5035317;28;20025;-69
2021/12/16 02:51:07;;;;;;;45.97;19.15;;;;;;;;;;5031451;28;20482;-70
2021/12/16 02:53:35;;;;;;;44.17;20.13;;;;;;;;;;5032108;28;20103;-69
2021/12/16 02:56:01;;;;;;;43.92;18.95;;;;;;;;;;5034912;28;20041;-69
2021/12/16 02:58:26;;;;;;;41.83;19.02;;;;;;;;;;5037798;28;20429;-70
2021/12/16 03:01:00;;;;;;;38.70;17.50;;;;;;;;;;5036456;28;20093;-69
2021/12/16 03:03:26;;;;;;;43.25;18.73;;;;;;;;;;5016968;28;20033;-69
2021/12/16 03:05:52;;;;;;;38.97;18.23;;;;;;;;;;5033950;28;20456;-69
2021/12/16 03:08:18;;;;;;;40.35;17.50;;;;;;;;;;5034365;28;20038;-69
2021/12/16 03:13:30;;;;;;;40.92;18.67;;;;;;;;;;5032009;28;20033;-69
2021/12/16 03:21:26;;;;;;;36.45;17.27;;;;;;;;;;4984277;28;20037;-69
2021/12/16 03:37:15;;;;;;;39.05;17.92;;;;;;;;;;5031248;28;20029;-70
2021/12/16 03:39:43;;;;;;;40.03;17.83;;;;;;;;;;5029430;28;20052;-69
2021/12/16 03:42:09;;;;;;;39.85;18.77;;;;;;;;;;5027764;28;20515;-69
2021/12/16 03:44:52;;;;;;;35.92;16.77;;;;;;;;;;5030150;28;20482;-69
2021/12/16 03:47:20;;;;;;;39.00;17.85;;;;;;;;;;5030516;28;20049;-69
2021/12/16 03:49:46;;;;;;;38.70;17.80;;;;;;;;;;5023352;28;20049;-69
2021/12/16 03:52:11;;;;;;;36.30;17.73;;;;;;;;;;5011101;28;20033;-69
2021/12/16 03:54:41;;;;;;;38.33;17.92;;;;;;;;;;5011337;28;20037;-69
2021/12/16 03:57:11;;;;;;;40.00;18.13;;;;;;;;;;5023780;28;20495;-69
2021/12/16 03:59:39;;;;;;;36.60;16.65;;;;;;;;;;5009951;28;20038;-69
2021/12/16 04:02:08;;;;;;;33.25;15.68;;;;;;;;;;5009249;28;20037;-69
2021/12/16 04:04:35;;;;;;;37.15;17.45;;;;;;;;;;5006097;28;20042;-69
2021/12/16 04:07:02;;;;;;;39.63;17.95;;;;;;;;;;5011730;28;20030;-69
2021/12/16 04:09:30;;;;;;;38.53;17.10;;;;;;;;;;5012474;28;20033;-69
2021/12/16 04:12:03;;;;;;;40.40;17.17;;;;;;;;;;5011308;28;20582;-69
2021/12/16 04:14:29;;;;;;;38.70;17.48;;;;;;;;;;5016281;28;20042;-69
2021/12/16 04:16:57;;;;;;;38.63;16.90;;;;;;;;;;5010381;28;20083;-70
2021/12/16 04:19:26;;;;;;;39.72;17.23;;;;;;;;;;5006779;28;20034;-69
2021/12/16 04:22:05;;;;;;;36.60;17.58;;;;;;;;;;5008377;28;20026;-69
2021/12/16 04:24:31;;;;;;;37.90;16.70;;;;;;;;;;4991200;28;20018;-69
2021/12/16 04:26:58;;;;;;;38.55;17.02;;;;;;;;;;5010294;28;20041;-69
2021/12/16 04:29:24;;;;;;;36.95;16.80;;;;;;;;;;5009168;28;20080;-69
2021/12/16 04:31:52;;;;;;;34.85;16.70;;;;;;;;;;5011975;28;20419;-69
2021/12/16 04:34:18;;;;;;;35.72;17.00;;;;;;;;;;5011748;28;20041;-70
2021/12/16 04:36:44;;;;;;;35.25;16.30;;;;;;;;;;5011255;28;20029;-69
2021/12/16 04:39:13;;;;;;;39.13;18.33;;;;;;;;;;5006226;28;20029;-69
2021/12/16 04:41:41;;;;;;;37.78;16.80;;;;;;;;;;4991276;28;20137;-69
2021/12/16 04:44:13;;;;;;;39.00;17.88;;;;;;;;;;5007562;28;20073;-69
2021/12/16 04:46:41;;;;;;;36.45;17.33;;;;;;;;;;5011811;28;20041;-69
2021/12/16 04:49:08;;;;;;;38.17;17.55;;;;;;;;;;4994085;28;20085;-69
2021/12/16 04:51:39;;;;;;;37.60;17.52;;;;;;;;;;5027546;28;20091;-69
2021/12/16 04:54:06;;;;;;;37.70;17.80;;;;;;;;;;5031263;28;20057;-69
2021/12/16 04:56:33;;;;;;;35.60;17.10;;;;;;;;;;5031217;28;20041;-69
2021/12/16 04:58:59;;;;;;;37.70;16.67;;;;;;;;;;5029874;28;20035;-69
2021/12/16 05:01:25;;;;;;;37.15;17.17;;;;;;;;;;5031254;28;20040;-69
2021/12/16 05:03:51;;;;;;;37.38;16.15;;;;;;;;;;5012181;28;20025;-69
2021/12/16 05:06:17;;;;;;;36.17;16.95;;;;;;;;;;5011935;28;20025;-69
2021/12/16 05:08:43;;;;;;;36.42;15.98;;;;;;;;;;5031159;28;20034;-69
2021/12/16 05:11:13;;;;;;;33.20;16.10;;;;;;;;;;5006971;28;20469;-69
2021/12/16 05:13:39;;;;;;;39.55;17.02;;;;;;;;;;5026537;28;20037;-69
2021/12/16 05:16:06;;;;;;;35.08;15.55;;;;;;;;;;5028356;28;20034;-70
2021/12/16 05:18:36;;;;;;;35.83;15.75;;;;;;;;;;5027703;28;20017;-69
2021/12/16 05:21:07;;;;;;;33.58;16.17;;;;;;;;;;5027691;28;20038;-69
2021/12/16 05:26:19;;;;;;;37.88;17.83;;;;;;;;;;5030357;28;20080;-69
2021/12/16 05:28:51;;;;;;;33.88;15.63;;;;;;;;;;5026303;28;20111;-69
2021/12/16 05:31:17;;;;;;;43.63;17.30;;;;;;;;;;5027105;28;20041;-69
2021/12/16 05:33:42;;;;;;;38.58;17.17;;;;;;;;;;5032939;28;20025;-69
2021/12/16 05:36:08;;;;;;;37.22;16.85;;;;;;;;;;5024264;28;20033;-69
2021/12/16 05:38:33;;;;;;;37.78;17.02;;;;;;;;;;5030773;28;20033;-69
2021/12/16 05:41:01;;;;;;;37.30;17.52;;;;;;;;;;5029261;28;20041;-69
2021/12/16 05:43:28;;;;;;;41.67;18.55;;;;;;;;;;5030404;28;20041;-69
2021/12/16 05:45:55;;;;;;;40.65;19.10;;;;;;;;;;5030272;28;20024;-69
2021/12/16 05:48:24;;;;;;;40.55;17.00;;;;;;;;;;5016191;28;20021;-70
2021/12/16 05:50:54;;;;;;;39.85;18.83;;;;;;;;;;5036287;28;20076;-69
2021/12/16 05:53:20;;;;;;;37.67;17.25;;;;;;;;;;5031950;28;20079;-69
2021/12/16 05:55:45;;;;;;;38.92;17.83;;;;;;;;;;5011832;28;20649;-69
2021/12/16 05:58:17;;;;;;;38.78;17.05;;;;;;;;;;5030331;28;20026;-69
2021/12/16 06:00:48;;;;;;;39.22;17.02;;;;;;;;;;5030686;28;20391;-69
2021/12/16 06:03:14;;;;;;;40.08;18.05;;;;;;;;;;5012387;28;20396;-69
2021/12/16 06:05:40;;;;;;;37.38;17.20;;;;;;;;;;5029306;28;20099;-69
2021/12/16 06:08:05;;;;;;;37.65;17.45;;;;;;;;;;5029805;28;20608;-69
2021/12/16 06:11:10;;;;;;;38.40;17.65;;;;;;;;;;5028167;28;20049;-69
2021/12/16 06:13:25;;;;;;;34.03;16.80;;;;;;;;;;5027472;28;20523;-69
2021/12/16 06:22:22;;;;;;;40.33;17.77;;;;;;;;;;5016748;28;20048;-69
2021/12/16 06:27:10;;;;;;;;;;;;;;;;;;5030270;28;20192;-69
2021/12/16 06:29:39;;;;;;;38.58;17.55;;;;;;;;;;5026986;28;20402;-69
2021/12/16 06:32:05;;;;;;;47.03;24.90;;;;;;;;;;5022424;28;20049;-69
2021/12/16 06:34:31;;;;;;;36.63;17.15;;;;;;;;;;5028962;28;20084;-69
2021/12/16 06:36:56;;;;;;;39.53;19.20;;;;;;;;;;5029033;28;20462;-69
2021/12/16 06:39:22;;;;;;;34.33;17.17;;;;;;;;;;5012173;28;20029;-69
2021/12/16 06:41:47;;;;;;;38.92;18.15;;;;;;;;;;5010364;28;20121;-69
2021/12/16 06:44:22;;;;;;;47.65;24.27;;;;;;;;;;5015624;28;20412;-69
2021/12/16 06:46:50;;;;;;;41.78;18.52;;;;;;;;;;5023805;28;20038;-69
2021/12/16 06:49:18;;;;;;;48.63;24.67;;;;;;;;;;5037306;28;20103;-69
2021/12/16 06:51:57;;;;;;;38.65;17.98;;;;;;;;;;5029535;28;20426;-69
2021/12/16 06:54:38;;;;;;;51.10;25.20;;;;;;;;;;5030168;28;20030;-69
2021/12/16 06:59:34;;;;;;;43.92;18.83;;;;;;;;;;5028719;28;20795;-69
2021/12/16 07:02:08;;;;;;;38.10;17.75;;;;;;;;;;5011746;28;20037;-69
2021/12/16 07:04:36;;;;;;;44.20;20.77;;;;;;;;;;5033388;28;20044;-69
2021/12/16 07:07:02;;;;;;;49.45;25.58;;;;;;;;;;5032141;28;20515;-69
2021/12/16 07:09:28;;;;;;;48.05;20.05;;;;;;;;;;5033245;28;20037;-69
2021/12/16 07:11:57;;;;;;;44.80;19.52;;;;;;;;;;5032726;28;20041;-69
2021/12/16 07:14:34;;;;;;;42.15;21.15;;;;;;;;;;5033588;28;20038;-69
2021/12/16 07:16:59;;;;;;;41.65;19.20;;;;;;;;;;5028264;28;20037;-69
2021/12/16 07:19:25;;;;;;;41.30;18.75;;;;;;;;;;5024154;28;20041;-69
2021/12/16 07:21:50;;;;;;;43.25;18.30;;;;;;;;;;5028184;28;20059;-69
2021/12/16 07:24:18;;;;;;;42.55;18.83;;;;;;;;;;5032178;28;20017;-69
2021/12/16 07:26:44;;;;;;;38.03;17.83;;;;;;;;;;5033237;28;20025;-69
2021/12/16 07:29:10;;;;;;;44.03;20.92;;;;;;;;;;5032246;28;20065;-69
2021/12/16 07:31:38;;;;;;;42.85;19.52;;;;;;;;;;5032641;28;20033;-69
2021/12/16 07:34:06;;;;;;;41.13;18.13;;;;;;;;;;5031729;28;20425;-69
2021/12/16 07:36:33;;;;;;;43.95;20.27;;;;;;;;;;4996790;28;20037;-69
2021/12/16 07:38:59;;;;;;;43.25;20.35;;;;;;;;;;5031817;28;20032;-69
2021/12/16 07:41:31;;;;;;;45.10;19.48;;;;;;;;;;5030942;28;20025;-69
2021/12/16 07:44:09;;;;;;;42.65;19.15;;;;;;;;;;5031465;28;20473;-69
2021/12/16 07:46:57;;;;;;;40.47;18.27;;;;;;;;;;5015356;28;20046;-69
2021/12/16 07:49:26;;;;;;;40.13;18.60;;;;;;;;;;5016202;28;20095;-69
2021/12/16 07:51:52;;;;;;;41.78;18.50;;;;;;;;;;5031495;28;20056;-69
2021/12/16 07:54:19;;;;;;;39.85;19.88;;;;;;;;;;5032731;28;20022;-69
2021/12/16 07:56:46;;;;;;;41.95;19.38;;;;;;;;;;5031158;28;20083;-69
2021/12/16 07:59:12;;;;;;;48.58;22.38;;;;;;;;;;5025292;28;20572;-70
2021/12/16 08:01:39;;;;;;;49.95;22.67;;;;;;;;;;5003614;28;20033;-70
2021/12/16 08:04:06;;;;;;;40.95;19.35;;;;;;;;;;5021246;28;20025;-71
2021/12/16 08:06:33;;;;;;;41.53;18.88;;;;;;;;;;5027774;28;20029;-71
2021/12/16 08:09:03;;;;;;;37.70;19.17;;;;;;;;;;5014252;28;20030;-71
2021/12/16 08:11:32;;;;;;;39.13;18.50;;;;;;;;;;5031664;28;20742;-71
2021/12/16 08:13:57;;;;;;;40.88;18.45;;;;;;;;;;5030734;28;20156;-71
2021/12/16 08:16:23;;;;;;;40.13;18.00;;;;;;;;;;5031767;28;20088;-72
2021/12/16 08:18:53;;;;;;;46.22;21.15;;;;;;;;;;5023080;28;20025;-71
2021/12/16 08:21:20;;;;;;;43.92;19.48;;;;;;;;;;5031668;28;20510;-70
2021/12/16 08:23:45;;;;;;;42.42;18.17;;;;;;;;;;5024532;28;20271;-70
2021/12/16 08:26:12;;;;;;;37.08;17.67;;;;;;;;;;5011143;28;20124;-71
2021/12/16 08:28:38;;;;;;;36.78;18.27;;;;;;;;;;5027756;28;20480;-70
2021/12/16 08:31:06;;;;;;;43.83;19.55;;;;;;;;;;5030414;28;20057;-71
2021/12/16 08:33:32;;;;;;;43.80;18.98;;;;;;;;;;5030521;28;20045;-69
2021/12/16 08:35:58;;;;;;;39.22;18.70;;;;;;;;;;5027933;28;20095;-71
2021/12/16 08:38:25;;;;;;;43.78;19.70;;;;;;;;;;5004416;28;20042;-69
2021/12/16 08:40:59;;;;;;;40.92;19.13;;;;;;;;;;5023426;28;20096;-72
2021/12/16 08:43:25;;;;;;;42.30;18.10;;;;;;;;;;5021159;28;20099;-72
2021/12/16 08:45:50;;;;;;;41.20;19.42;;;;;;;;;;5018645;28;20025;-69
2021/12/16 08:48:16;;;;;;;42.30;19.38;;;;;;;;;;5028945;28;20021;-70
2021/12/16 08:50:46;;;;;;;41.72;18.55;;;;;;;;;;5028791;28;20469;-68
2021/12/16 08:53:12;;;;;;;38.95;17.80;;;;;;;;;;5026803;28;20128;-71
2021/12/16 08:55:40;;;;;;;38.40;18.80;;;;;;;;;;5029174;28;20518;-70
2021/12/16 08:58:08;;;;;;;43.10;18.63;;;;;;;;;;5027608;28;20037;-72
2021/12/16 09:00:39;;;;;;;39.90;17.98;;;;;;;;;;5010985;28;20116;-69
2021/12/16 09:03:05;;;;;;;36.22;16.52;;;;;;;;;;5025256;28;20041;-70
2021/12/16 09:05:31;;;;;;;37.22;18.05;;;;;;;;;;5017475;28;20037;-68
2021/12/16 09:07:56;;;;;;;36.63;18.63;;;;;;;;;;5000819;28;20091;-72
2021/12/16 09:10:27;;;;;;;37.63;18.42;;;;;;;;;;5015600;28;20038;-69
2021/12/16 09:13:02;;;;;;;43.17;17.60;;;;;;;;;;5027111;28;20041;-74
2021/12/16 09:15:31;;;;;;;38.95;18.15;;;;;;;;;;5028878;28;20033;-72
2021/12/16 09:17:56;;;;;;;41.30;18.67;;;;;;;;;;5028070;28;20475;-74
2021/12/16 09:20:22;;;;;;;42.80;19.48;;;;;;;;;;5024667;28;20125;-72
2021/12/16 09:22:48;;;;;;;43.75;18.42;;;;;;;;;;5028015;28;20099;-73
2021/12/16 09:25:14;;;;;;;38.70;18.90;;;;;;;;;;5023962;28;20048;-72
2021/12/16 09:27:41;;;;;;;42.78;18.08;;;;;;;;;;5023237;28;20036;-73
2021/12/16 09:30:09;;;;;;;40.28;18.25;;;;;;;;;;4996727;28;20510;-73
2021/12/16 09:32:35;;;;;;;36.03;17.55;;;;;;;;;;5008124;28;20041;-74
2021/12/16 09:35:03;;;;;;;41.55;18.27;;;;;;;;;;5028199;28;20502;-73
2021/12/16 09:37:29;;;;;;;42.53;19.17;;;;;;;;;;5003096;28;20053;-73
2021/12/16 09:39:56;;;;;;;39.15;19.60;;;;;;;;;;5021259;28;20076;-73
2021/12/16 09:42:24;;;;;;;37.53;18.17;;;;;;;;;;5029143;28;20022;-74
2021/12/16 09:44:50;;;;;;;37.55;18.65;;;;;;;;;;5008617;28;20457;-70
2021/12/16 09:47:15;;;;;;;37.05;18.67;;;;;;;;;;5023916;28;20538;-71
2021/12/16 09:49:42;;;;;;;41.50;18.25;;;;;;;;;;5025054;28;20534;-73
2021/12/16 09:52:11;;;;;;;38.13;18.38;;;;;;;;;;5024685;28;20533;-71
2021/12/16 09:54:38;;;;;;;40.45;19.10;;;;;;;;;;5028564;28;20060;-71
2021/12/16 09:57:03;;;;;;;42.78;19.65;;;;;;;;;;5020474;28;20042;-70
2021/12/16 09:59:32;;;;;;;40.58;18.77;;;;;;;;;;5016245;28;20037;-72
2021/12/16 10:02:01;;;;;;;42.38;19.35;;;;;;;;;;5026854;28;20411;-71
2021/12/16 10:04:31;;;;;;;44.17;18.23;;;;;;;;;;5027714;28;20041;-70
2021/12/16 10:07:00;;;;;;;41.75;19.30;;;;;;;;;;5020785;28;20042;-71
2021/12/16 10:09:27;;;;;;;43.25;19.73;;;;;;;;;;5028313;28;20041;-71
2021/12/16 10:11:55;;;;;;;42.60;20.17;;;;;;;;;;5004469;28;20200;-70
2021/12/16 10:19:37;;;;;;;46.25;21.23;;;;;;;;;;5025454;28;20056;-70
2021/12/16 10:22:38;;;;;;;48.78;22.08;;;;;;;;;;5028042;28;20033;-73
2021/12/16 10:25:21;;;;;;;44.78;21.17;;;;;;;;;;5017567;28;20057;-70
2021/12/16 10:28:00;;;;;;;45.97;20.50;;;;;;;;;;5023502;28;20065;-72
2021/12/16 10:30:39;;;;;;;43.88;19.73;;;;;;;;;;5025108;28;20141;-72
2021/12/16 10:33:17;;;;;;;49.22;22.00;;;;;;;;;;5025135;28;20047;-73
2021/12/16 10:35:47;;;;;;;49.67;22.70;;;;;;;;;;5028846;28;20069;-73
2021/12/16 10:38:20;;;;;;;47.50;21.80;;;;;;;;;;5011616;28;20080;-71
2021/12/16 10:40:52;;;;;;;50.22;22.33;;;;;;;;;;5011762;28;20034;-72
2021/12/16 10:43:36;;;;;;;44.50;21.50;;;;;;;;;;5030174;28;20049;-70
2021/12/16 10:46:09;;;;;;;45.13;21.15;;;;;;;;;;5012984;28;20033;-72
2021/12/16 10:48:42;;;;;;;48.75;21.05;;;;;;;;;;5004113;28;20065;-72
2021/12/16 10:51:20;;;;;;;43.25;20.45;;;;;;;;;;5024321;28;20426;-72
2021/12/16 10:53:54;;;;;;;43.35;21.27;;;;;;;;;;4992073;28;20050;-70
2021/12/16 10:56:38;;;;;;;51.35;22.83;;;;;;;;;;4995386;28;20061;-72
2021/12/16 10:59:13;;;;;;;49.90;20.90;;;;;;;;;;5010166;28;20515;-71
2021/12/16 11:01:54;;;;;;;43.80;20.50;;;;;;;;;;5012600;28;20504;-71
2021/12/16 11:04:24;;;;;;;42.28;20.63;;;;;;;;;;5023016;28;20064;-71
2021/12/16 11:06:59;;;;;;;42.22;21.15;;;;;;;;;;5007854;28;20029;-71
2021/12/16 11:09:45;;;;;;;43.13;21.02;;;;;;;;;;5013169;28;20422;-73
2021/12/16 11:12:24;;;;;;;42.47;20.23;;;;;;;;;;5014761;28;20568;-71
2021/12/16 11:15:04;;;;;;;44.55;20.20;;;;;;;;;;5019143;28;20044;-73
2021/12/16 11:17:34;;;;;;;44.03;20.33;;;;;;;;;;5015670;28;20042;-73
2021/12/16 11:20:07;;;;;;;45.58;19.35;;;;;;;;;;5010371;28;20034;-71
2021/12/16 11:22:39;;;;;;;47.60;21.33;;;;;;;;;;4996527;28;20263;-73
2021/12/16 11:25:17;;;;;;;45.63;20.15;;;;;;;;;;5010390;28;20029;-70
2021/12/16 11:27:49;;;;;;;47.80;20.33;;;;;;;;;;4997561;28;20030;-71
2021/12/16 11:30:39;;;;;;;48.70;21.55;;;;;;;;;;4992193;28;20060;-72
2021/12/16 11:33:11;;;;;;;53.13;22.63;;;;;;;;;;5008754;28;20039;-72
2021/12/16 11:35:42;;;;;;;42.90;21.40;;;;;;;;;;4999314;28;20389;-71
2021/12/16 11:38:21;;;;;;;47.10;21.45;;;;;;;;;;4998909;28;20077;-69
2021/12/16 11:40:58;;;;;;;45.30;21.30;;;;;;;;;;5006299;28;20500;-72
2021/12/16 11:43:37;;;;;;;52.70;22.88;;;;;;;;;;4990345;28;20045;-71
2021/12/16 11:46:07;;;;;;;47.83;21.58;;;;;;;;;;5008055;28;20136;-72
2021/12/16 11:48:35;;;;;;;51.25;22.20;;;;;;;;;;5007307;28;20029;-70
2021/12/16 11:51:23;;;;;;;45.30;21.65;;;;;;;;;;5015136;28;20057;-71
2021/12/16 11:53:53;;;;;;;46.20;21.08;;;;;;;;;;5025405;28;20423;-70
2021/12/16 11:56:32;;;;;;;47.92;22.27;;;;;;;;;;5026373;28;20044;-70
2021/12/16 11:58:58;;;;;;;42.97;19.85;;;;;;;;;;5023476;28;20033;-70
2021/12/16 12:01:23;;;;;;;55.20;22.00;;;;;;;;;;5029323;28;20427;-71
2021/12/16 12:03:49;;;;;;;48.30;20.85;;;;;;;;;;5028871;28;20056;-70
2021/12/16 12:06:34;;;;;;;48.97;20.65;;;;;;;;;;5030288;28;20032;-70
2021/12/16 12:09:01;;;;;;;51.22;22.25;;;;;;;;;;5016572;28;20392;-70
2021/12/16 12:11:30;;;;;;;50.92;21.95;;;;;;;;;;5028136;28;20073;-70
2021/12/16 12:14:04;;;;;;;54.15;22.52;;;;;;;;;;5005373;28;20128;-70
2021/12/16 12:16:36;;;;;;;52.13;21.98;;;;;;;;;;5023822;28;20049;-71
2021/12/16 12:19:10;;;;;;;47.55;20.90;;;;;;;;;;5007289;28;20065;-70
2021/12/16 12:21:58;;;;;;;49.03;22.38;;;;;;;;;;5028612;28;20518;-70
2021/12/16 12:24:26;;;;;;;49.72;22.63;;;;;;;;;;5027312;28;20994;-71
2021/12/16 12:27:11;;;;;;;45.03;21.67;;;;;;;;;;5023405;28;20095;-70
2021/12/16 12:29:36;;;;;;;48.55;21.52;;;;;;;;;;5025548;28;20104;-70
2021/12/16 12:32:34;;;;;;;52.13;22.48;;;;;;;;;;5027154;28;20053;-71
2021/12/16 12:35:10;;;;;;;50.20;21.23;;;;;;;;;;5009245;28;20033;-70
2021/12/16 12:37:40;;;;;;;53.92;21.92;;;;;;;;;;5026561;28;20064;-70
2021/12/16 12:40:13;;;;;;;51.33;21.77;;;;;;;;;;5023446;28;20028;-71
2021/12/16 12:42:40;;;;;;;59.25;23.60;;;;;;;;;;5023530;28;20499;-73
2021/12/16 12:45:08;;;;;;;55.72;23.02;;;;;;;;;;5022578;28;20046;-72
2021/12/16 12:47:37;;;;;;;50.67;23.77;;;;;;;;;;5022533;28;20079;-73
2021/12/16 12:50:36;;;;;;;61.00;24.73;;;;;;;;;;5028229;28;20045;-72
2021/12/16 12:53:26;;;;;;;54.17;23.70;;;;;;;;;;5006596;28;20064;-72
2021/12/16 12:55:56;;;;;;;46.95;21.85;;;;;;;;;;5009962;28;20714;-73
2021/12/16 12:58:27;;;;;;;50.25;22.25;;;;;;;;;;5001065;28;20474;-72
2021/12/16 13:00:56;;;;;;;53.22;22.77;;;;;;;;;;5019729;28;20057;-72
2021/12/16 13:03:35;;;;;;;51.35;22.60;;;;;;;;;;5015252;28;20753;-78
2021/12/16 13:06:06;;;;;;;51.10;22.75;;;;;;;;;;5023329;28;20699;-73
2021/12/16 13:08:45;;;;;;;52.63;24.13;;;;;;;;;;5018421;28;20043;-69
2021/12/16 13:11:19;;;;;;;56.88;24.10;;;;;;;;;;5021986;28;20037;-69
2021/12/16 13:28:20;;;;;;;;;;;;;;;;;;5021658;28;20045;-71
2021/12/16 13:30:59;;;;;;;54.65;22.95;;;;;;;;;;5003894;28;19968;-71
2021/12/16 13:33:37;;;;;;;51.70;23.88;;;;;;;;;;5020516;28;20076;-69
2021/12/16 13:36:06;;;;;;;54.10;23.40;;;;;;;;;;5021157;28;20183;-70
2021/12/16 13:38:40;;;;;;;50.05;22.58;;;;;;;;;;5024370;28;20649;-70
2021/12/16 13:41:12;;;;;;;48.13;21.83;;;;;;;;;;5038464;28;20110;-69
2021/12/16 13:43:38;;;;;;;50.23;22.27;;;;;;;;;;5023213;28;20033;-71
2021/12/16 13:46:30;;;;;;;51.28;22.23;;;;;;;;;;5021014;28;20510;-69
2021/12/16 14:03:41;;;;;;;52.10;23.23;;;;;;;;;;5023966;28;20033;-72
2021/12/16 14:06:21;;;;;;;51.97;22.75;;;;;;;;;;5019703;28;20038;-72
2021/12/16 14:08:53;;;;;;;46.55;21.70;;;;;;;;;;5023247;28;20136;-72
2021/12/16 14:16:57;;;;;;;56.35;23.48;;;;;;;;;;5019374;28;20033;-70
2021/12/16 14:25:41;;;;;;;51.05;21.48;;;;;;;;;;5008446;28;20049;-73
2021/12/16 14:47:12;;;;;;;51.25;22.88;;;;;;;;;;5024349;28;20037;-78
2021/12/16 14:49:43;;;;;;;51.00;21.92;;;;;;;;;;5009989;28;20030;-73
2021/12/16 14:52:24;;;;;;;49.17;21.48;;;;;;;;;;5024662;28;20057;-73
2021/12/16 14:55:06;;;;;;;49.22;22.08;;;;;;;;;;5023451;28;20041;-75
2021/12/16 14:57:41;;;;;;;53.47;23.25;;;;;;;;;;5004333;28;20052;-73
2021/12/16 15:00:19;;;;;;;53.80;22.02;;;;;;;;;;5007764;28;20641;-72
2021/12/16 15:02:47;;;;;;;51.10;22.15;;;;;;;;;;5020445;28;20044;-74
2021/12/16 15:05:29;;;;;;;53.70;22.95;;;;;;;;;;5019085;28;20037;-72
2021/12/16 15:08:04;;;;;;;46.75;20.17;;;;;;;;;;5012265;28;20495;-72
2021/12/16 15:10:29;;;;;;;45.85;20.95;;;;;;;;;;5024258;28;20092;-72
2021/12/16 15:13:03;;;;;;;49.10;22.25;;;;;;;;;;5024275;28;20421;-71
2021/12/16 15:15:38;;;;;;;56.40;22.75;;;;;;;;;;5023969;28;20053;-72
2021/12/16 15:42:52;;;;;;;44.95;18.58;;;;;;;;;;5019469;28;20494;-70
2021/12/16 15:45:23;;;;;;;44.67;17.95;;;;;;;;;;5018301;28;20070;-73
2021/12/16 15:48:17;;;;;;;38.35;17.15;;;;;;;;;;5024064;28;20041;-74
2021/12/16 15:50:53;;;;;;;154.90;22.02;;;;;;;;;;5015949;28;20551;-73
2021/12/16 15:53:22;;;;;;;75.03;17.98;;;;;;;;;;5024993;28;20578;-78
2021/12/16 15:56:00;;;;;;;58.17;16.55;;;;;;;;;;5025743;28;20112;-74
2021/12/16 15:58:29;;;;;;;76.35;17.33;;;;;;;;;;5020781;28;20764;-76
2021/12/16 16:00:59;;;;;;;109.75;18.02;;;;;;;;;;5001929;28;20183;-67
2021/12/16 16:03:26;;;;;;;83.57;16.50;;;;;;;;;;5025404;28;20080;-70
2021/12/16 16:05:55;;;;;;;77.85;17.35;;;;;;;;;;5028129;28;20092;-73
2021/12/16 16:08:23;;;;;;;33.60;15.38;;;;;;;;;;5009247;28;20065;-70
2021/12/16 16:10:54;;;;;;;87.93;18.02;;;;;;;;;;5026796;28;20033;-74
2021/12/16 16:13:23;;;;;;;107.47;17.17;;;;;;;;;;5029203;28;20030;-74
2021/12/16 16:15:51;;;;;;;55.75;15.52;;;;;;;;;;5027816;28;20037;-74
2021/12/16 16:21:06;;;;;;;71.30;17.02;;;;;;;;;;5022961;28;20506;-75
2021/12/16 16:23:34;;;;;;;85.28;18.40;;;;;;;;;;5018862;28;20030;-74
2021/12/16 16:26:07;;;;;;;60.70;17.08;;;;;;;;;;4999982;28;20462;-73
2021/12/16 16:28:33;;;;;;;53.95;17.30;;;;;;;;;;5020056;28;20526;-71
2021/12/16 16:30:59;;;;;;;63.47;16.98;;;;;;;;;;5021995;28;20047;-71
2021/12/16 16:33:26;;;;;;;69.45;17.45;;;;;;;;;;5025482;28;20033;-72
2021/12/16 16:35:58;;;;;;;65.85;16.45;;;;;;;;;;5031890;28;20115;-78
2021/12/16 16:38:30;;;;;;;69.10;17.98;;;;;;;;;;5021334;28;20041;-74
2021/12/16 16:40:58;;;;;;;111.57;29.57;;;;;;;;;;5018749;28;20526;-71
2021/12/16 16:43:36;;;;;;;114.15;33.30;;;;;;;;;;5013223;28;20029;-71
2021/12/16 16:46:18;;;;;;;118.60;22.70;;;;;;;;;;5026697;28;20029;-71
2021/12/16 16:48:52;;;;;;;113.07;19.52;;;;;;;;;;5028245;28;20128;-71
2021/12/16 16:51:25;;;;;;;84.38;22.48;;;;;;;;;;5027018;28;20538;-71
2021/12/16 16:54:26;;;;;;;88.43;21.27;;;;;;;;;;5020794;28;20085;-71
2021/12/16 16:56:59;;;;;;;85.72;19.27;;;;;;;;;;5013088;28;20084;-70
2021/12/16 16:59:36;;;;;;;160.38;31.10;;;;;;;;;;5025328;28;20280;-71
2021/12/16 17:02:15;;;;;;;183.88;24.33;;;;;;;;;;5027550;28;20471;-71
2021/12/16 17:04:41;;;;;;;97.93;23.38;;;;;;;;;;5027794;28;20044;-72
2021/12/16 17:07:07;;;;;;;92.25;22.50;;;;;;;;;;5008360;28;20505;-74
2021/12/16 17:09:37;;;;;;;88.88;21.67;;;;;;;;;;5009152;28;20558;-73
2021/12/16 17:12:14;;;;;;;108.47;21.98;;;;;;;;;;5020102;28;20028;-72
2021/12/16 17:14:49;;;;;;;130.65;22.48;;;;;;;;;;5027334;28;20037;-71
2021/12/16 17:17:25;;;;;;;82.55;23.65;;;;;;;;;;5025691;28;20568;-71
2021/12/16 17:20:11;;;;;;;173.43;24.98;;;;;;;;;;5014118;28;20034;-71
2021/12/16 17:22:45;;;;;;;97.57;28.08;;;;;;;;;;5026885;28;20061;-71
2021/12/16 17:25:10;;;;;;;65.13;20.92;;;;;;;;;;5027991;28;20091;-71
2021/12/16 17:27:43;;;;;;;86.20;23.60;;;;;;;;;;5005414;28;20033;-71
2021/12/16 17:30:20;;;;;;;61.17;20.30;;;;;;;;;;5008462;28;20065;-71
2021/12/16 17:32:48;;;;;;;52.40;15.65;;;;;;;;;;5027502;28;20033;-71
2021/12/16 17:35:21;;;;;;;68.05;18.73;;;;;;;;;;5009563;28;20032;-71
2021/12/16 17:38:10;;;;;;;71.15;20.80;;;;;;;;;;5026962;28;20036;-71
2021/12/16 17:40:49;;;;;;;73.63;19.98;;;;;;;;;;4999482;28;20041;-71
2021/12/16 17:43:20;;;;;;;67.15;19.27;;;;;;;;;;5027015;28;20025;-72
2021/12/16 17:45:56;;;;;;;50.25;18.00;;;;;;;;;;5027421;28;20029;-71
2021/12/16 17:48:29;;;;;;;58.80;14.15;;;;;;;;;;5024460;28;20140;-71
2021/12/16 17:51:01;;;;;;;31.52;10.48;;;;;;;;;;5024447;28;20041;-71
2021/12/16 17:53:26;;;;;;;22.33;10.05;;;;;;;;;;5026877;28;20530;-71
2021/12/16 17:55:59;;;;;;;50.50;10.63;;;;;;;;;;5008062;28;20033;-72
2021/12/16 17:58:30;;;;;;;39.85;11.52;;;;;;;;;;5004094;28;20498;-71
2021/12/16 18:00:58;;;;;;;44.40;11.35;;;;;;;;;;5015689;28;20391;-74
2021/12/16 18:03:29;;;;;;;49.88;11.55;;;;;;;;;;5011973;28;20037;-75
2021/12/16 18:05:59;;;;;;;39.30;14.75;;;;;;;;;;5025832;28;20395;-75
2021/12/16 18:08:30;;;;;;;31.00;13.02;;;;;;;;;;5023475;28;20044;-73
2021/12/16 18:10:57;;;;;;;40.80;13.65;;;;;;;;;;5025245;28;20565;-73
2021/12/16 18:13:51;;;;;;;58.42;16.92;;;;;;;;;;5008167;28;20026;-73
2021/12/16 18:16:20;;;;;;;69.03;19.30;;;;;;;;;;5025305;28;20112;-73
2021/12/16 18:18:49;;;;;;;71.13;19.45;;;;;;;;;;5016463;28;20030;-73
2021/12/16 18:21:14;;;;;;;77.35;24.10;;;;;;;;;;5017870;28;20033;-71
2021/12/16 18:23:45;;;;;;;56.50;19.33;;;;;;;;;;5018439;28;20450;-71
2021/12/16 18:26:11;;;;;;;89.15;24.05;;;;;;;;;;5015596;28;20038;-71
2021/12/16 18:28:44;;;;;;;105.57;25.00;;;;;;;;;;5022598;28;20026;-71
2021/12/16 18:31:11;;;;;;;;;;;;;;;;;;5027491;28;20050;-71
2021/12/16 18:33:42;;;;;;;153.52;23.08;;;;;;;;;;5027100;28;19943;-71
2021/12/16 18:36:12;;;;;;;92.18;23.85;;;;;;;;;;5025418;28;20025;-70